Time;durP1;ratioP1;P1;durP2;ratioP2;P2;SDS_P1;SDS_P2;PMS_P1;PMS_P2;Temp;Humidity;BMP_temperature;BMP_pressure;BME280_temperature;BME280_humidity;BME280_pressure;Samples;Min_cycle;Max_cycle;Signal;HPM_P1;HPM_P2
2021/09/24 00:01:02;;;;;;;6.93;6.23;;;14.80;49.90;;;;;;5055608;28;20183;-81
2021/09/24 00:03:28;;;;;;;6.30;5.70;;;14.80;50.00;;;;;;5055500;28;20627;-81
2021/09/24 00:05:53;;;;;;;6.77;5.60;;;14.80;50.80;;;;;;5055490;28;20772;-81
2021/09/24 00:08:19;;;;;;;6.43;5.93;;;14.80;50.70;;;;;;5055316;28;20451;-81
2021/09/24 00:10:45;;;;;;;5.20;4.90;;;14.80;50.40;;;;;;5055336;28;20648;-81
2021/09/24 00:13:12;;;;;;;5.77;4.80;;;14.80;50.50;;;;;;5055253;28;20321;-81
2021/09/24 00:15:38;;;;;;;6.50;5.80;;;14.70;50.30;;;;;;5055381;28;20829;-82
2021/09/24 00:18:04;;;;;;;5.90;5.50;;;14.80;50.20;;;;;;5055365;28;20460;-81
2021/09/24 00:20:30;;;;;;;7.00;5.30;;;14.80;50.30;;;;;;5055295;28;20272;-82
2021/09/24 00:22:56;;;;;;;6.63;6.03;;;14.80;50.00;;;;;;5055307;28;20887;-81
2021/09/24 00:25:21;;;;;;;6.10;5.50;;;14.80;50.50;;;;;;5055082;28;20175;-81
2021/09/24 00:27:47;;;;;;;6.13;5.73;;;14.70;50.10;;;;;;5072961;28;20418;-81
2021/09/24 00:30:14;;;;;;;6.07;5.57;;;14.70;50.40;;;;;;5055057;28;20602;-81
2021/09/24 00:32:40;;;;;;;6.27;5.77;;;14.70;50.20;;;;;;5073041;28;20175;-81
2021/09/24 00:35:07;;;;;;;6.27;5.67;;;14.70;50.30;;;;;;5054977;28;20413;-81
2021/09/24 00:37:32;;;;;;;5.50;5.00;;;14.70;50.20;;;;;;5054919;28;20670;-82
2021/09/24 00:39:58;;;;;;;8.23;6.80;;;14.70;50.10;;;;;;5072719;28;20457;-82
2021/09/24 00:42:24;;;;;;;6.27;5.77;;;14.80;51.10;;;;;;5054741;28;20175;-82
2021/09/24 00:44:51;;;;;;;5.63;5.23;;;14.80;50.30;;;;;;5054939;28;20608;-81
2021/09/24 00:47:18;;;;;;;6.07;5.60;;;14.80;49.80;;;;;;5054626;28;20449;-82
2021/09/24 00:49:45;;;;;;;5.70;5.30;;;14.80;49.90;;;;;;5054565;28;20417;-82
2021/09/24 00:52:11;;;;;;;6.50;5.30;;;14.70;50.00;;;;;;5054670;28;20421;-82
2021/09/24 00:54:37;;;;;;;5.67;5.27;;;14.70;49.80;;;;;;5054630;28;20437;-82
2021/09/24 00:57:04;;;;;;;6.10;5.50;;;14.70;50.20;;;;;;5054326;28;20520;-82
2021/09/24 00:59:30;;;;;;;6.17;5.67;;;14.70;50.10;;;;;;5054734;28;20421;-81
2021/09/24 01:01:57;;;;;;;5.83;5.43;;;14.70;50.50;;;;;;5054479;28;20418;-82
2021/09/24 01:04:23;;;;;;;6.17;5.67;;;14.70;50.70;;;;;;5072491;28;20406;-81
2021/09/24 01:06:50;;;;;;;6.10;5.70;;;14.60;50.60;;;;;;5054168;28;20413;-81
2021/09/24 01:09:16;;;;;;;6.50;5.93;;;14.50;51.20;;;;;;5054282;28;20448;-81
2021/09/24 01:11:42;;;;;;;6.43;6.03;;;14.50;51.10;;;;;;5054177;28;20420;-81
2021/09/24 01:14:07;;;;;;;6.10;5.70;;;14.40;51.40;;;;;;5054362;28;20421;-81
2021/09/24 01:16:33;;;;;;;5.63;5.17;;;14.40;51.80;;;;;;5054177;28;20795;-81
2021/09/24 01:18:59;;;;;;;6.07;5.57;;;14.40;51.80;;;;;;5054113;28;20207;-81
2021/09/24 01:21:25;;;;;;;6.03;5.57;;;14.40;51.60;;;;;;5054292;28;20518;-81
2021/09/24 01:23:50;;;;;;;6.07;5.60;;;14.50;52.20;;;;;;5072035;28;20210;-81
2021/09/24 01:26:16;;;;;;;6.10;5.70;;;14.40;52.00;;;;;;5053779;28;20438;-81
2021/09/24 01:28:45;;;;;;;7.13;5.80;;;14.40;51.80;;;;;;5054119;28;20179;-81
2021/09/24 01:31:13;;;;;;;5.90;5.50;;;14.30;51.90;;;;;;5054101;28;20213;-81
2021/09/24 01:33:47;;;;;;;6.27;5.87;;;14.30;52.30;;;;;;5054124;28;20425;-81
2021/09/24 01:36:13;;;;;;;6.27;5.80;;;14.40;53.00;;;;;;5054029;28;20450;-82
2021/09/24 01:38:39;;;;;;;6.20;5.70;;;14.30;52.40;;;;;;5053739;28;20445;-82
2021/09/24 01:41:06;;;;;;;5.70;5.30;;;14.40;52.80;;;;;;5054182;28;20179;-81
2021/09/24 01:43:32;;;;;;;7.20;6.50;;;14.40;52.30;;;;;;5053905;28;20413;-81
2021/09/24 01:45:58;;;;;;;6.27;5.87;;;14.40;52.40;;;;;;5053910;28;20414;-82
2021/09/24 01:48:24;;;;;;;6.60;6.10;;;14.30;52.80;;;;;;5053814;28;20447;-81
2021/09/24 01:50:49;;;;;;;6.33;5.93;;;14.30;52.20;;;;;;5053738;28;20536;-81
2021/09/24 01:53:15;;;;;;;6.30;5.80;;;14.40;52.30;;;;;;5053909;28;20699;-81
2021/09/24 01:55:41;;;;;;;5.77;5.37;;;14.40;52.20;;;;;;5071787;28;20179;-81
2021/09/24 01:58:07;;;;;;;6.10;5.70;;;14.30;52.70;;;;;;5053588;28;20515;-81
2021/09/24 02:00:32;;;;;;;5.80;5.40;;;14.30;53.10;;;;;;5053802;28;20171;-81
2021/09/24 02:02:58;;;;;;;6.77;6.17;;;14.30;52.90;;;;;;5053907;28;20218;-81
2021/09/24 02:05:24;;;;;;;6.50;5.97;;;14.30;52.90;;;;;;5053824;28;20651;-81
2021/09/24 02:07:50;;;;;;;6.27;5.70;;;14.20;52.90;;;;;;5053537;28;20253;-81
2021/09/24 02:10:15;;;;;;;6.90;6.40;;;14.20;53.30;;;;;;5053917;28;20175;-81
2021/09/24 02:12:41;;;;;;;7.20;6.50;;;14.10;52.80;;;;;;5053793;28;20182;-81
2021/09/24 02:15:07;;;;;;;6.93;6.40;;;14.10;53.50;;;;;;5053811;28;20191;-81
2021/09/24 02:17:33;;;;;;;6.60;6.10;;;14.00;53.60;;;;;;5053434;28;20298;-80
2021/09/24 02:19:59;;;;;;;6.87;6.17;;;14.00;54.00;;;;;;5053850;28;20910;-81
2021/09/24 02:22:25;;;;;;;6.87;6.37;;;14.00;54.00;;;;;;5053679;28;20172;-81
2021/09/24 02:24:50;;;;;;;7.20;6.53;;;13.90;54.90;;;;;;5053830;28;20172;-81
2021/09/24 02:27:16;;;;;;;6.57;6.07;;;13.90;54.80;;;;;;5053520;28;20951;-81
2021/09/24 02:29:42;;;;;;;6.40;5.90;;;13.90;54.80;;;;;;5053712;28;20688;-81
2021/09/24 02:32:08;;;;;;;6.73;6.23;;;13.90;54.80;;;;;;5053590;28;20191;-80
2021/09/24 02:34:33;;;;;;;7.43;6.93;;;13.90;54.80;;;;;;5053717;28;20175;-80
2021/09/24 02:36:59;;;;;;;7.33;6.73;;;13.70;54.60;;;;;;5054528;28;20609;-80
2021/09/24 02:39:24;;;;;;;8.40;7.77;;;13.70;54.80;;;;;;5057459;28;20249;-81
2021/09/24 02:41:50;;;;;;;7.00;6.50;;;13.70;54.80;;;;;;5057370;28;20198;-81
2021/09/24 02:44:16;;;;;;;7.30;6.73;;;13.80;55.30;;;;;;5057317;28;20171;-81
2021/09/24 02:46:42;;;;;;;7.37;6.83;;;13.80;54.80;;;;;;5056851;28;20183;-82
2021/09/24 02:49:08;;;;;;;6.40;5.90;;;13.90;54.80;;;;;;5057238;28;20211;-81
2021/09/24 02:51:34;;;;;;;6.43;5.93;;;13.90;54.80;;;;;;5057316;28;20467;-81
2021/09/24 02:54:00;;;;;;;6.63;6.13;;;13.90;54.50;;;;;;5057456;28;20186;-81
2021/09/24 02:56:26;;;;;;;7.23;6.73;;;14.00;54.40;;;;;;5057380;28;20175;-81
2021/09/24 02:58:51;;;;;;;6.87;6.17;;;14.00;53.80;;;;;;5057131;28;20464;-81
2021/09/24 03:01:17;;;;;;;6.00;5.60;;;14.00;54.00;;;;;;5056878;28;20171;-81
2021/09/24 03:03:43;;;;;;;7.43;6.73;;;14.00;54.30;;;;;;5056961;28;20179;-81
2021/09/24 03:06:08;;;;;;;7.33;6.73;;;13.90;54.30;;;;;;5056659;28;20277;-81
2021/09/24 03:08:34;;;;;;;6.27;5.77;;;14.00;54.50;;;;;;5056444;28;20244;-82
2021/09/24 03:11:00;;;;;;;7.60;5.87;;;13.90;53.70;;;;;;5056812;28;20269;-81
2021/09/24 03:13:26;;;;;;;6.90;6.30;;;13.90;53.80;;;;;;5056559;28;20175;-81
2021/09/24 03:15:53;;;;;;;6.07;5.57;;;13.90;54.70;;;;;;5056766;28;20179;-82
2021/09/24 03:18:19;;;;;;;7.33;6.50;;;13.90;54.20;;;;;;5056404;28;20202;-81
2021/09/24 03:20:45;;;;;;;6.67;6.17;;;14.00;54.00;;;;;;5056337;28;20909;-81
2021/09/24 03:23:11;;;;;;;7.17;6.57;;;14.00;54.00;;;;;;5056687;28;20418;-80
2021/09/24 03:25:36;;;;;;;6.50;6.00;;;14.00;53.70;;;;;;5056659;28;20757;-81
2021/09/24 03:28:02;;;;;;;8.17;6.50;;;14.00;54.10;;;;;;5056508;28;20673;-81
2021/09/24 03:30:28;;;;;;;6.93;6.27;;;14.00;53.70;;;;;;5056512;28;20620;-82
2021/09/24 03:32:54;;;;;;;6.93;6.53;;;14.00;53.40;;;;;;5056478;28;20541;-80
2021/09/24 03:35:20;;;;;;;7.57;6.97;;;14.00;53.30;;;;;;5074152;28;20179;-80
2021/09/24 03:37:46;;;;;;;7.80;6.37;;;14.10;53.30;;;;;;5055763;28;20465;-81
2021/09/24 03:40:12;;;;;;;7.30;6.70;;;14.10;53.40;;;;;;5056319;28;20262;-80
2021/09/24 03:42:38;;;;;;;8.40;7.70;;;14.10;53.40;;;;;;5056170;28;20472;-82
2021/09/24 03:45:04;;;;;;;7.60;7.00;;;14.00;54.00;;;;;;5056202;28;20441;-81
2021/09/24 03:47:30;;;;;;;6.77;6.27;;;14.00;54.20;;;;;;5055607;28;20214;-81
2021/09/24 03:49:55;;;;;;;7.53;6.93;;;14.00;53.80;;;;;;5055983;28;20418;-82
2021/09/24 03:52:21;;;;;;;7.77;7.17;;;14.00;53.50;;;;;;5056128;28;20175;-82
2021/09/24 03:54:47;;;;;;;7.70;7.10;;;14.00;53.50;;;;;;5056121;28;20900;-79
2021/09/24 03:57:12;;;;;;;7.70;7.10;;;14.00;54.20;;;;;;5055886;28;20271;-79
2021/09/24 03:59:38;;;;;;;8.13;7.43;;;14.00;54.00;;;;;;5056020;28;20175;-81
2021/09/24 04:02:04;;;;;;;8.50;7.00;;;14.00;53.40;;;;;;5055992;28;20171;-81
2021/09/24 04:04:30;;;;;;;8.23;7.53;;;13.90;53.70;;;;;;5055925;28;20220;-80
2021/09/24 04:06:55;;;;;;;7.90;7.20;;;13.90;54.00;;;;;;5055704;28;20210;-80
2021/09/24 04:09:21;;;;;;;7.80;7.20;;;13.90;53.90;;;;;;5055699;28;20869;-81
2021/09/24 04:11:47;;;;;;;8.07;7.30;;;13.90;54.00;;;;;;5055651;28;20627;-80
2021/09/24 04:14:12;;;;;;;7.77;7.07;;;13.80;53.90;;;;;;5055575;28;20172;-80
2021/09/24 04:16:38;;;;;;;7.50;7.00;;;13.80;54.70;;;;;;5055326;28;20268;-81
2021/09/24 04:19:04;;;;;;;6.97;6.47;;;13.70;54.60;;;;;;5055451;28;20214;-80
2021/09/24 04:21:29;;;;;;;11.63;9.73;;;13.80;54.80;;;;;;5074013;28;20619;-81
2021/09/24 04:23:55;;;;;;;8.00;7.30;;;13.70;54.70;;;;;;5054206;28;20402;-81
2021/09/24 04:26:21;;;;;;;8.30;7.43;;;13.70;55.10;;;;;;5074488;28;20221;-85
2021/09/24 04:28:53;;;;;;;7.60;7.00;;;13.60;54.90;;;;;;5056696;28;20207;-82
2021/09/24 04:31:18;;;;;;;9.00;8.20;;;13.50;56.10;;;;;;5056062;28;20596;-80
2021/09/24 04:33:44;;;;;;;8.23;7.43;;;13.60;55.50;;;;;;5056044;28;20418;-80
2021/09/24 04:36:09;;;;;;;7.60;6.90;;;13.50;56.10;;;;;;5055673;28;20179;-80
2021/09/24 04:38:35;;;;;;;7.47;6.97;;;13.50;56.10;;;;;;5055162;28;20282;-83
2021/09/24 04:41:01;;;;;;;9.07;8.40;;;13.50;55.80;;;;;;5073288;28;20164;-80
2021/09/24 04:43:26;;;;;;;8.63;7.93;;;13.50;56.50;;;;;;5054919;28;20701;-81
2021/09/24 04:45:53;;;;;;;8.33;7.73;;;13.60;56.20;;;;;;5054924;28;20180;-81
2021/09/24 04:48:18;;;;;;;9.30;7.90;;;13.50;55.70;;;;;;5054597;28;20210;-81
2021/09/24 04:50:44;;;;;;;8.07;7.03;;;13.50;56.00;;;;;;5054521;28;20452;-81
2021/09/24 04:53:09;;;;;;;8.40;7.60;;;13.50;56.30;;;;;;5054796;28;20179;-81
2021/09/24 04:55:35;;;;;;;8.00;7.30;;;13.50;56.00;;;;;;5054698;28;20698;-81
2021/09/24 04:58:01;;;;;;;8.83;7.93;;;13.50;56.30;;;;;;5054358;28;20208;-81
2021/09/24 05:00:26;;;;;;;7.73;7.17;;;13.50;56.30;;;;;;5053770;28;20172;-81
2021/09/24 05:02:52;;;;;;;9.63;8.03;;;13.50;56.10;;;;;;5054369;28;20270;-81
2021/09/24 05:05:18;;;;;;;8.50;7.63;;;13.50;56.10;;;;;;5054419;28;20183;-81
2021/09/24 05:07:43;;;;;;;7.10;6.60;;;13.60;55.60;;;;;;5054378;28;20270;-81
2021/09/24 05:10:09;;;;;;;7.60;7.00;;;13.60;55.70;;;;;;5054389;28;20541;-81
2021/09/24 05:12:35;;;;;;;7.90;7.40;;;13.70;55.70;;;;;;5054471;28;20183;-81
2021/09/24 05:15:01;;;;;;;8.00;7.30;;;13.70;55.40;;;;;;5054185;28;20410;-81
2021/09/24 05:17:26;;;;;;;8.00;7.33;;;13.60;56.20;;;;;;5053948;28;20222;-81
2021/09/24 05:19:53;;;;;;;8.13;7.53;;;13.70;55.00;;;;;;5054321;28;20218;-81
2021/09/24 05:22:19;;;;;;;8.30;7.47;;;13.70;55.70;;;;;;5054223;28;20829;-81
2021/09/24 05:24:44;;;;;;;7.13;6.63;;;13.70;55.10;;;;;;5054276;28;20199;-81
2021/09/24 05:27:10;;;;;;;7.20;6.70;;;13.70;55.70;;;;;;5041155;28;20184;-81
2021/09/24 05:29:36;;;;;;;8.03;7.03;;;13.70;55.50;;;;;;5034202;28;20172;-81
2021/09/24 05:32:02;;;;;;;6.87;6.37;;;13.80;56.20;;;;;;5034258;28;20614;-81
2021/09/24 05:34:27;;;;;;;7.73;7.00;;;13.80;55.70;;;;;;5038018;28;20190;-82
2021/09/24 05:36:53;;;;;;;9.07;7.80;;;13.80;55.20;;;;;;5053524;28;20261;-81
2021/09/24 05:39:19;;;;;;;9.03;8.23;;;13.80;54.70;;;;;;5053528;28;20230;-81
2021/09/24 05:41:45;;;;;;;8.93;8.03;;;13.90;55.50;;;;;;5053935;28;20214;-81
2021/09/24 05:44:11;;;;;;;7.00;6.40;;;13.80;54.70;;;;;;5053980;28;20224;-81
2021/09/24 05:46:36;;;;;;;8.73;7.40;;;13.80;55.20;;;;;;5053779;28;20926;-81
2021/09/24 05:49:03;;;;;;;7.30;6.70;;;13.80;54.80;;;;;;5054031;28;20550;-81
2021/09/24 05:51:28;;;;;;;7.97;7.17;;;13.90;55.30;;;;;;5071831;28;20682;-81
2021/09/24 05:53:54;;;;;;;7.70;7.00;;;13.90;55.20;;;;;;5054068;28;20508;-80
2021/09/24 05:56:20;;;;;;;7.13;6.47;;;13.90;54.90;;;;;;5053961;28;20986;-80
2021/09/24 05:58:46;;;;;;;8.77;7.70;;;13.90;55.20;;;;;;5053643;28;20206;-81
2021/09/24 06:01:11;;;;;;;8.27;7.57;;;13.90;55.40;;;;;;5053639;28;20175;-81
2021/09/24 06:03:37;;;;;;;6.70;6.07;;;13.90;55.10;;;;;;5053846;28;20171;-82
2021/09/24 06:06:03;;;;;;;7.80;6.70;;;13.90;54.90;;;;;;5055736;28;20704;-81
2021/09/24 06:08:28;;;;;;;7.43;6.50;;;14.00;54.90;;;;;;5055249;28;20179;-81
2021/09/24 06:10:56;;;;;;;7.00;6.50;;;14.00;55.40;;;;;;5055216;28;20525;-81
2021/09/24 06:13:21;;;;;;;8.77;6.47;;;14.00;54.90;;;;;;5057985;28;20183;-80
2021/09/24 06:15:48;;;;;;;7.50;7.00;;;14.10;55.00;;;;;;5075501;28;20420;-81
2021/09/24 06:18:14;;;;;;;7.37;6.70;;;14.10;54.80;;;;;;5057017;28;20313;-81
2021/09/24 06:20:40;;;;;;;8.00;7.40;;;14.10;54.90;;;;;;5057257;28;20413;-82
2021/09/24 06:23:05;;;;;;;7.37;6.73;;;14.10;54.80;;;;;;5075377;28;20401;-81
2021/09/24 06:25:31;;;;;;;7.73;7.23;;;14.10;55.10;;;;;;5057528;28;20647;-81
2021/09/24 06:27:57;;;;;;;7.57;6.97;;;14.20;54.50;;;;;;5057330;28;20183;-81
2021/09/24 06:30:25;;;;;;;6.90;6.40;;;14.30;54.40;;;;;;5057495;28;20608;-81
2021/09/24 06:32:51;;;;;;;7.10;6.60;;;14.30;54.00;;;;;;5057168;28;20266;-81
2021/09/24 06:35:17;;;;;;;7.63;6.87;;;14.30;53.60;;;;;;5057168;28;20418;-81
2021/09/24 06:37:43;;;;;;;7.50;6.37;;;14.30;53.80;;;;;;5056952;28;20483;-81
2021/09/24 06:40:10;;;;;;;8.00;6.73;;;14.40;53.80;;;;;;5057176;28;20421;-81
2021/09/24 06:42:36;;;;;;;8.60;7.70;;;14.40;53.90;;;;;;5057280;28;20230;-80
2021/09/24 06:45:04;;;;;;;8.00;7.33;;;14.40;54.20;;;;;;5056907;28;20414;-81
2021/09/24 06:47:30;;;;;;;7.37;6.77;;;14.60;53.90;;;;;;5074772;28;20824;-82
2021/09/24 06:49:56;;;;;;;7.00;6.23;;;14.60;53.90;;;;;;5056817;28;20425;-80
2021/09/24 06:52:22;;;;;;;6.97;6.40;;;14.60;54.10;;;;;;5057039;28;20634;-81
2021/09/24 06:54:49;;;;;;;7.87;7.17;;;14.60;54.00;;;;;;5056903;28;20579;-80
2021/09/24 06:57:15;;;;;;;11.20;8.33;;;14.70;53.70;;;;;;5042262;28;20472;-81
2021/09/24 06:59:40;;;;;;;7.50;6.90;;;14.70;53.50;;;;;;5036667;28;20414;-81
2021/09/24 07:02:06;;;;;;;7.33;6.83;;;14.70;53.50;;;;;;5034724;28;20572;-82
2021/09/24 07:04:32;;;;;;;8.03;7.43;;;14.70;53.90;;;;;;5036873;28;20180;-82
2021/09/24 07:06:57;;;;;;;10.10;9.20;;;14.80;53.50;;;;;;5036420;28;20271;-82
2021/09/24 07:09:23;;;;;;;6.60;6.10;;;14.90;53.80;;;;;;5036648;28;20633;-82
2021/09/24 07:11:49;;;;;;;6.73;6.20;;;14.90;53.50;;;;;;5036061;28;20211;-82
2021/09/24 07:14:19;;;;;;;7.63;7.03;;;14.90;54.00;;;;;;5036548;28;20226;-83
2021/09/24 07:16:46;;;;;;;6.93;6.30;;;14.90;54.00;;;;;;5036208;28;20187;-82
2021/09/24 07:19:12;;;;;;;8.40;7.10;;;15.00;53.90;;;;;;5036536;28;20469;-82
2021/09/24 07:21:37;;;;;;;7.40;6.50;;;15.10;53.30;;;;;;5036334;28;20783;-82
2021/09/24 07:24:03;;;;;;;7.00;6.47;;;15.10;53.00;;;;;;5035699;28;20238;-82
2021/09/24 07:26:30;;;;;;;7.77;7.17;;;15.20;52.40;;;;;;5054086;28;20540;-82
2021/09/24 07:28:57;;;;;;;8.23;7.53;;;15.20;52.60;;;;;;5036073;28;20464;-82
2021/09/24 07:31:23;;;;;;;8.37;7.57;;;15.30;52.50;;;;;;5036223;28;20423;-81
2021/09/24 07:33:52;;;;;;;8.00;7.20;;;15.30;52.80;;;;;;5036345;28;20505;-81
2021/09/24 07:36:18;;;;;;;7.90;7.20;;;15.30;52.60;;;;;;5036283;28;20423;-81
2021/09/24 07:38:46;;;;;;;7.60;7.00;;;15.40;52.60;;;;;;5036042;28;20462;-81
2021/09/24 07:41:13;;;;;;;7.23;6.63;;;15.40;52.50;;;;;;5036216;28;20415;-81
2021/09/24 07:43:39;;;;;;;8.23;7.53;;;15.40;52.00;;;;;;5036304;28;20425;-81
2021/09/24 07:46:05;;;;;;;8.40;7.57;;;15.50;52.20;;;;;;5035971;28;20415;-81
2021/09/24 07:48:31;;;;;;;8.40;7.03;;;15.60;52.10;;;;;;5035637;28;20191;-83
2021/09/24 07:50:57;;;;;;;8.40;7.80;;;15.60;52.00;;;;;;5035446;28;20208;-82
2021/09/24 07:53:22;;;;;;;8.80;8.00;;;15.60;52.10;;;;;;5035894;28;20422;-83
2021/09/24 07:55:48;;;;;;;6.10;5.53;;;15.70;51.60;;;;;;5035755;28;20192;-81
2021/09/24 07:58:14;;;;;;;7.30;6.60;;;15.70;51.70;;;;;;5035419;28;20218;-81
2021/09/24 08:00:40;;;;;;;7.47;6.77;;;15.80;51.70;;;;;;5035702;28;20212;-81
2021/09/24 08:03:06;;;;;;;7.50;6.80;;;15.80;51.30;;;;;;5035639;28;20325;-80
2021/09/24 08:05:32;;;;;;;7.10;6.50;;;15.90;50.50;;;;;;5035589;28;20513;-81
2021/09/24 08:07:57;;;;;;;7.83;7.13;;;16.00;50.80;;;;;;5052891;28;20454;-81
2021/09/24 08:10:25;;;;;;;6.90;6.40;;;16.00;50.60;;;;;;5035309;28;20454;-79
2021/09/24 08:12:52;;;;;;;7.80;7.20;;;16.00;50.50;;;;;;5035532;28;20211;-79
2021/09/24 08:15:17;;;;;;;7.10;6.60;;;16.10;50.60;;;;;;5034483;28;20423;-79
2021/09/24 08:17:43;;;;;;;8.00;7.40;;;16.10;50.40;;;;;;5052843;28;20458;-79
2021/09/24 08:20:10;;;;;;;8.70;8.00;;;16.20;50.10;;;;;;5035269;28;20446;-80
2021/09/24 08:22:39;;;;;;;7.27;6.67;;;16.20;50.20;;;;;;5035176;28;20497;-80
2021/09/24 08:25:11;;;;;;;6.60;6.10;;;16.30;50.50;;;;;;5035181;28;20418;-79
2021/09/24 08:27:37;;;;;;;7.80;7.20;;;16.40;50.00;;;;;;5035590;28;20517;-79
2021/09/24 08:30:05;;;;;;;6.30;5.90;;;16.40;50.10;;;;;;5035558;28;20421;-80
2021/09/24 08:32:34;;;;;;;6.07;5.60;;;16.50;49.40;;;;;;5035400;28;20453;-82
2021/09/24 08:34:59;;;;;;;7.20;6.60;;;16.50;49.20;;;;;;5034602;28;20514;-82
2021/09/24 08:37:25;;;;;;;7.53;6.90;;;16.50;49.50;;;;;;5035154;28;20958;-82
2021/09/24 08:39:51;;;;;;;7.70;6.93;;;16.50;49.30;;;;;;5035734;28;20255;-82
2021/09/24 08:42:16;;;;;;;7.90;7.30;;;16.60;49.70;;;;;;5034278;28;20772;-82
2021/09/24 08:44:42;;;;;;;6.40;5.90;;;16.60;49.00;;;;;;5035333;28;20675;-82
2021/09/24 08:47:08;;;;;;;6.87;6.20;;;16.70;48.40;;;;;;5035221;28;20240;-82
2021/09/24 08:49:34;;;;;;;6.53;6.03;;;16.80;47.60;;;;;;5035595;28;20179;-82
2021/09/24 08:51:59;;;;;;;6.50;6.00;;;16.80;47.80;;;;;;5034775;28;20537;-83
2021/09/24 08:54:25;;;;;;;5.50;5.10;;;16.80;48.30;;;;;;5035153;28;20298;-84
2021/09/24 08:56:51;;;;;;;10.20;6.13;;;16.80;47.60;;;;;;5035178;28;20184;-83
2021/09/24 08:59:16;;;;;;;6.60;5.30;;;16.90;47.70;;;;;;5034811;28;20207;-85
2021/09/24 09:02:08;;;;;;;7.07;5.67;;;17.00;47.20;;;;;;5035278;28;20183;-85
2021/09/24 09:04:37;;;;;;;6.10;5.70;;;17.10;46.40;;;;;;5035203;28;20260;-85
2021/09/24 09:07:08;;;;;;;5.47;5.07;;;17.10;46.00;;;;;;5034639;28;20505;-85
2021/09/24 09:09:36;;;;;;;6.00;5.40;;;17.20;45.80;;;;;;5034985;28;20472;-84
2021/09/24 09:12:16;;;;;;;5.50;5.10;;;17.20;45.90;;;;;;5034494;28;20414;-84
2021/09/24 09:14:43;;;;;;;7.60;6.30;;;17.40;45.00;;;;;;5035088;28;20425;-85
2021/09/24 09:17:27;;;;;;;5.73;5.20;;;17.60;44.00;;;;;;5034113;28;20431;-85
2021/09/24 09:20:11;;;;;;;6.40;5.40;;;17.60;44.10;;;;;;5034789;28;20422;-85
2021/09/24 09:22:37;;;;;;;6.00;5.50;;;17.60;43.90;;;;;;5034560;28;20414;-85
2021/09/24 09:25:05;;;;;;;5.80;5.30;;;17.70;44.10;;;;;;5034543;28;20418;-85
2021/09/24 09:27:31;;;;;;;6.13;5.63;;;17.70;44.20;;;;;;5033852;28;20410;-84
2021/09/24 09:30:11;;;;;;;4.63;4.30;;;17.80;43.70;;;;;;5034166;28;20478;-84
2021/09/24 09:32:38;;;;;;;5.30;4.90;;;17.80;43.80;;;;;;5034315;28;20176;-84
2021/09/24 09:35:05;;;;;;;5.30;4.80;;;17.80;43.50;;;;;;5034182;28;20406;-83
2021/09/24 09:37:35;;;;;;;5.20;4.80;;;17.80;43.60;;;;;;5034233;28;20414;-84
2021/09/24 09:40:02;;;;;;;5.30;4.90;;;17.70;43.70;;;;;;5052110;28;20481;-84
2021/09/24 09:42:36;;;;;;;5.33;4.93;;;17.70;44.10;;;;;;5034197;28;20479;-84
2021/09/24 09:45:04;;;;;;;5.37;4.87;;;17.70;44.00;;;;;;5034433;28;20422;-84
2021/09/24 09:47:31;;;;;;;4.60;4.30;;;17.60;44.60;;;;;;5038135;28;20829;-84
2021/09/24 09:50:13;;;;;;;5.83;5.33;;;17.70;45.00;;;;;;5038185;28;21339;-83
2021/09/24 09:53:08;;;;;;;5.03;4.67;;;17.60;46.50;;;;;;5038286;28;20463;-84
2021/09/24 09:55:36;;;;;;;5.13;4.73;;;17.60;45.80;;;;;;5038205;28;20933;-84
2021/09/24 09:58:06;;;;;;;5.00;4.60;;;17.70;44.90;;;;;;5037868;28;20457;-84
2021/09/24 10:00:34;;;;;;;5.33;4.83;;;17.70;44.90;;;;;;5038428;28;20480;-84
2021/09/24 10:03:04;;;;;;;6.10;5.60;;;17.90;44.40;;;;;;5038222;28;20525;-83
2021/09/24 10:05:43;;;;;;;5.97;5.00;;;17.90;44.00;;;;;;5037640;28;20517;-84
2021/09/24 10:08:30;;;;;;;5.10;4.60;;;17.90;44.00;;;;;;5037898;28;20533;-84
2021/09/24 10:11:07;;;;;;;5.20;4.70;;;17.90;44.70;;;;;;5038325;28;20518;-84
2021/09/24 10:13:50;;;;;;;5.00;4.37;;;17.90;44.90;;;;;;5038112;28;20405;-84
2021/09/24 10:16:16;;;;;;;4.23;3.73;;;17.90;44.50;;;;;;5038094;28;20426;-83
2021/09/24 10:18:42;;;;;;;4.37;3.97;;;17.90;44.60;;;;;;5037851;28;20492;-83
2021/09/24 10:21:07;;;;;;;4.70;4.30;;;18.10;45.10;;;;;;5037874;28;20415;-80
2021/09/24 10:23:39;;;;;;;5.07;4.67;;;18.20;44.50;;;;;;5037989;28;20566;-82
2021/09/24 10:26:13;;;;;;;3.70;3.50;;;18.30;43.20;;;;;;5038809;28;20180;-80
2021/09/24 10:28:40;;;;;;;4.20;3.90;;;18.30;41.90;;;;;;5037309;28;20425;-80
2021/09/24 10:31:14;;;;;;;4.80;4.13;;;18.30;43.00;;;;;;5037473;28;20411;-80
2021/09/24 10:33:51;;;;;;;4.60;4.30;;;18.20;43.40;;;;;;5037357;28;20422;-81
2021/09/24 10:36:44;;;;;;;4.60;4.20;;;18.20;43.70;;;;;;5037176;28;20829;-81
2021/09/24 10:39:42;;;;;;;4.73;4.33;;;18.20;43.00;;;;;;5037170;28;20519;-81
2021/09/24 10:42:33;;;;;;;4.20;3.80;;;18.20;42.50;;;;;;5015144;28;20842;-79
2021/09/24 10:45:21;;;;;;;5.03;4.57;;;18.40;43.70;;;;;;5032346;28;20506;-80
2021/09/24 10:48:03;;;;;;;4.53;4.23;;;18.40;43.10;;;;;;5037154;28;20415;-81
2021/09/24 10:50:29;;;;;;;4.63;4.23;;;18.40;43.70;;;;;;5036697;28;21022;-80
2021/09/24 10:53:19;;;;;;;7.43;5.00;;;18.40;43.50;;;;;;5036860;28;20418;-81
2021/09/24 10:55:54;;;;;;;4.43;4.03;;;18.50;43.80;;;;;;5037141;28;20632;-80
2021/09/24 10:58:31;;;;;;;4.80;4.50;;;18.60;42.30;;;;;;5035499;28;20453;-81
2021/09/24 11:01:07;;;;;;;4.13;3.83;;;18.70;41.90;;;;;;5054721;28;20762;-81
2021/09/24 11:03:48;;;;;;;5.57;3.83;;;18.80;41.90;;;;;;5037174;28;20910;-79
2021/09/24 11:06:14;;;;;;;4.27;3.97;;;18.80;41.10;;;;;;5036808;28;20402;-81
2021/09/24 11:08:45;;;;;;;5.50;4.40;;;18.90;40.50;;;;;;5036626;28;20418;-80
2021/09/24 11:11:14;;;;;;;4.37;4.07;;;18.80;40.50;;;;;;5036448;28;20779;-80
2021/09/24 11:13:48;;;;;;;4.50;4.10;;;18.90;40.40;;;;;;5036375;28;20471;-81
2021/09/24 11:16:25;;;;;;;4.87;4.50;;;18.90;40.50;;;;;;5054622;28;20890;-81
2021/09/24 11:18:58;;;;;;;4.13;3.83;;;19.00;39.40;;;;;;5054351;28;20457;-80
2021/09/24 11:21:45;;;;;;;4.90;4.13;;;19.00;38.80;;;;;;5036648;28;20434;-81
2021/09/24 11:24:27;;;;;;;5.07;4.37;;;19.00;39.40;;;;;;5036370;28;20418;-81
2021/09/24 11:26:55;;;;;;;4.70;4.40;;;19.00;39.40;;;;;;5036333;28;20418;-80
2021/09/24 11:29:23;;;;;;;4.40;4.00;;;19.00;41.10;;;;;;5036457;28;20454;-80
2021/09/24 11:32:05;;;;;;;4.33;4.03;;;19.10;38.50;;;;;;5036035;28;20930;-81
2021/09/24 11:34:43;;;;;;;4.37;4.07;;;19.00;37.90;;;;;;5036246;28;20414;-80
2021/09/24 11:37:30;;;;;;;4.00;3.70;;;19.00;38.40;;;;;;5036209;28;20414;-81
2021/09/24 11:40:06;;;;;;;4.97;3.80;;;19.20;36.90;;;;;;5036246;28;20461;-80
2021/09/24 11:42:35;;;;;;;4.23;3.93;;;19.20;38.00;;;;;;5035753;28;20767;-80
2021/09/24 11:45:04;;;;;;;4.37;4.10;;;19.30;38.00;;;;;;5035830;28;20434;-80
2021/09/24 11:47:40;;;;;;;4.70;4.30;;;19.30;37.50;;;;;;5035696;28;20438;-80
2021/09/24 11:50:15;;;;;;;6.10;4.20;;;19.40;37.30;;;;;;5036098;28;20822;-80
2021/09/24 11:52:52;;;;;;;3.93;3.70;;;19.50;36.30;;;;;;5036285;28;20410;-81
2021/09/24 11:55:26;;;;;;;4.27;3.87;;;19.50;36.70;;;;;;5034657;28;20502;-81
2021/09/24 11:57:57;;;;;;;5.33;4.83;;;19.50;37.40;;;;;;5015931;28;20462;-81
2021/09/24 12:00:25;;;;;;;5.03;4.73;;;19.70;36.30;;;;;;5016003;28;20803;-81
2021/09/24 12:03:10;;;;;;;5.20;4.80;;;19.70;37.40;;;;;;5019298;28;20413;-81
2021/09/24 12:05:37;;;;;;;5.27;4.80;;;19.70;37.40;;;;;;5035748;28;20415;-81
2021/09/24 12:08:10;;;;;;;5.00;4.60;;;19.60;37.40;;;;;;5035290;28;20477;-81
2021/09/24 12:10:36;;;;;;;5.53;4.93;;;19.60;37.60;;;;;;5035445;28;20913;-81
2021/09/24 12:13:13;;;;;;;4.80;4.50;;;19.70;37.10;;;;;;5035705;28;20484;-81
2021/09/24 12:15:59;;;;;;;10.27;7.27;;;19.80;37.30;;;;;;5035498;28;20207;-82
2021/09/24 12:18:45;;;;;;;6.77;6.10;;;19.90;35.70;;;;;;5051617;28;20954;-81
2021/09/24 12:21:13;;;;;;;5.03;4.63;;;19.90;36.80;;;;;;5035439;28;20418;-81
2021/09/24 12:23:40;;;;;;;4.60;4.30;;;20.00;36.50;;;;;;5035189;28;20932;-81
2021/09/24 12:26:10;;;;;;;5.20;4.70;;;20.00;35.40;;;;;;5035120;28;20822;-81
2021/09/24 12:28:37;;;;;;;5.17;4.77;;;20.10;35.60;;;;;;5034751;28;20498;-80
2021/09/24 12:31:05;;;;;;;4.50;4.10;;;20.10;35.10;;;;;;5047727;28;20501;-81
2021/09/24 12:33:30;;;;;;;5.70;5.20;;;20.20;34.80;;;;;;5031967;28;20403;-81
2021/09/24 12:36:05;;;;;;;5.47;4.97;;;20.30;34.60;;;;;;5031707;28;20427;-81
2021/09/24 12:38:33;;;;;;;5.47;5.07;;;20.30;34.00;;;;;;5031485;28;20226;-81
2021/09/24 12:41:06;;;;;;;4.73;4.43;;;20.30;34.20;;;;;;5031619;28;20415;-81
2021/09/24 12:43:34;;;;;;;5.20;4.80;;;20.20;34.10;;;;;;5031644;28;20415;-81
2021/09/24 12:45:59;;;;;;;5.50;5.17;;;20.30;35.80;;;;;;5031701;28;20454;-81
2021/09/24 12:48:34;;;;;;;6.07;5.67;;;20.30;35.70;;;;;;5031498;28;20455;-80
2021/09/24 12:51:00;;;;;;;6.30;5.80;;;20.30;34.50;;;;;;5031462;28;20254;-81